createdAt,value
2022-12-31T00:00:22.058Z,1.95
2022-12-31T00:02:49.098Z,2.05
2022-12-31T00:05:16.303Z,2.08
2022-12-31T00:10:09.136Z,1.77
2022-12-31T00:12:36.115Z,1.65
2022-12-31T00:15:03.789Z,2.50
2022-12-31T00:17:30.819Z,1.77
2022-12-31T00:19:57.863Z,1.20
2022-12-31T00:22:26.723Z,1.88
2022-12-31T00:24:53.773Z,1.27
2022-12-31T00:27:22.542Z,1.50
2022-12-31T00:29:49.468Z,2.05
2022-12-31T00:32:16.538Z,2.28
2022-12-31T00:34:43.341Z,1.58
2022-12-31T00:37:10.325Z,2.33
2022-12-31T00:39:37.926Z,2.30
2022-12-31T00:42:05.219Z,1.92
2022-12-31T00:44:32.812Z,2.30
2022-12-31T00:46:59.711Z,2.00
2022-12-31T00:49:26.610Z,2.05
2022-12-31T00:51:53.780Z,1.95
2022-12-31T00:54:20.647Z,1.67
2022-12-31T00:56:47.583Z,1.45
2022-12-31T00:59:14.413Z,1.80
2022-12-31T01:01:42.732Z,1.58
2022-12-31T01:04:13.001Z,2.10
2022-12-31T01:06:40.968Z,1.65
2022-12-31T01:09:08.656Z,1.45
2022-12-31T01:11:36.161Z,1.70
2022-12-31T01:14:03.582Z,1.50
2022-12-31T01:16:34.512Z,1.30
2022-12-31T01:19:06.583Z,1.65
2022-12-31T01:21:35.026Z,1.50
2022-12-31T01:24:02.257Z,1.67
2022-12-31T01:26:30.008Z,1.40
2022-12-31T01:28:58.364Z,1.33
2022-12-31T01:31:26.182Z,1.50
2022-12-31T01:33:55.188Z,1.55
2022-12-31T01:36:28.155Z,1.70
2022-12-31T01:38:56.970Z,2.05
2022-12-31T01:41:35.085Z,1.67
2022-12-31T01:44:14.114Z,2.40
2022-12-31T01:46:53.135Z,1.90
2022-12-31T01:49:29.612Z,2.03
2022-12-31T01:52:07.548Z,2.10
2022-12-31T01:54:40.632Z,1.85
2022-12-31T01:57:09.525Z,1.80
2022-12-31T01:59:37.295Z,1.73
2022-12-31T02:02:05.163Z,2.00
2022-12-31T02:04:32.263Z,1.77
2022-12-31T02:07:03.156Z,1.70
2022-12-31T02:09:31.432Z,1.23
2022-12-31T02:11:58.331Z,1.60
2022-12-31T02:14:36.121Z,1.92
2022-12-31T02:17:24.744Z,2.08
2022-12-31T02:20:13.804Z,1.80
2022-12-31T02:23:10.903Z,1.77
2022-12-31T02:26:17.689Z,1.75
2022-12-31T02:29:12.419Z,1.70
2022-12-31T02:31:50.290Z,1.50
2022-12-31T02:34:26.552Z,1.70
2022-12-31T02:36:58.305Z,1.50
2022-12-31T02:39:29.103Z,1.65
2022-12-31T02:41:56.032Z,1.40
2022-12-31T02:44:27.589Z,1.52
2022-12-31T02:47:09.694Z,1.30
2022-12-31T02:50:04.679Z,1.70
2022-12-31T02:53:02.009Z,1.13
2022-12-31T02:56:01.153Z,1.30
2022-12-31T02:59:05.167Z,1.45
2022-12-31T03:01:56.070Z,1.20
2022-12-31T03:04:35.990Z,1.17
2022-12-31T03:07:14.141Z,1.30
2022-12-31T03:09:42.364Z,0.90
2022-12-31T03:12:33.259Z,1.00
2022-12-31T03:15:02.933Z,1.23
2022-12-31T03:17:34.531Z,1.00
2022-12-31T03:20:29.848Z,1.00
2022-12-31T03:22:57.230Z,1.40
2022-12-31T03:25:35.163Z,0.75
2022-12-31T03:28:04.764Z,0.93
2022-12-31T03:30:32.719Z,1.20
2022-12-31T03:33:01.860Z,1.10
2022-12-31T03:35:30.200Z,0.68
2022-12-31T03:37:58.681Z,0.80
2022-12-31T03:40:30.267Z,0.80
2022-12-31T03:42:57.713Z,0.80
2022-12-31T03:45:24.947Z,1.00
2022-12-31T03:47:52.775Z,0.50
2022-12-31T03:50:21.336Z,0.80
2022-12-31T03:52:48.739Z,0.73
2022-12-31T03:55:18.721Z,1.10
2022-12-31T03:57:45.659Z,0.75
2022-12-31T04:00:15.119Z,0.60
2022-12-31T04:02:42.427Z,0.70
2022-12-31T04:05:09.657Z,0.73
2022-12-31T04:07:36.704Z,0.80
2022-12-31T04:10:09.034Z,1.05
2022-12-31T04:12:36.818Z,0.90
2022-12-31T04:15:07.299Z,1.10
2022-12-31T04:17:34.276Z,0.82
2022-12-31T04:20:05.809Z,0.88
2022-12-31T04:22:32.780Z,0.80
2022-12-31T04:25:00.843Z,0.90
2022-12-31T04:27:27.965Z,0.80
2022-12-31T04:29:54.886Z,1.10
2022-12-31T04:32:22.677Z,0.90
2022-12-31T04:34:49.580Z,0.80
2022-12-31T04:37:18.573Z,0.70
2022-12-31T04:39:45.488Z,0.80
2022-12-31T04:42:12.624Z,0.90
2022-12-31T04:44:39.475Z,1.10
2022-12-31T04:47:06.279Z,1.00
2022-12-31T04:49:33.281Z,0.93
2022-12-31T04:52:00.099Z,0.77
2022-12-31T04:54:27.135Z,0.77
2022-12-31T04:56:53.974Z,1.10
2022-12-31T04:59:20.855Z,1.00
2022-12-31T05:01:47.921Z,0.80
2022-12-31T05:04:15.007Z,0.90
2022-12-31T05:06:41.940Z,0.60
2022-12-31T05:09:08.803Z,0.95
2022-12-31T05:11:35.930Z,0.85
2022-12-31T05:14:02.765Z,0.73
2022-12-31T05:16:29.677Z,0.80
2022-12-31T05:18:56.531Z,0.88
2022-12-31T05:21:23.436Z,0.80
2022-12-31T05:23:50.319Z,0.95
2022-12-31T05:26:17.482Z,1.30
2022-12-31T05:28:44.810Z,0.75
2022-12-31T05:31:11.792Z,0.95
2022-12-31T05:33:39.597Z,0.82
2022-12-31T05:36:06.795Z,1.00
2022-12-31T05:38:33.752Z,0.80
2022-12-31T05:41:04.399Z,0.82
2022-12-31T05:43:32.738Z,0.90
2022-12-31T05:46:05.702Z,0.90
2022-12-31T05:48:32.599Z,0.90
2022-12-31T05:50:59.523Z,0.90
2022-12-31T05:53:26.356Z,0.70
2022-12-31T05:55:53.157Z,0.70
2022-12-31T05:58:20.515Z,0.63
2022-12-31T06:00:49.150Z,0.80
2022-12-31T06:03:16.186Z,0.95
2022-12-31T06:05:43.567Z,0.60
2022-12-31T06:08:12.286Z,0.80
2022-12-31T06:10:40.521Z,0.77
2022-12-31T06:13:07.912Z,0.70
2022-12-31T06:15:40.289Z,1.00
2022-12-31T06:18:07.346Z,0.70
2022-12-31T06:20:36.804Z,0.70
2022-12-31T06:23:04.897Z,0.70
2022-12-31T06:25:31.897Z,0.55
2022-12-31T06:27:58.709Z,0.80
2022-12-31T06:30:25.528Z,0.70
2022-12-31T06:32:52.526Z,0.82
2022-12-31T06:35:19.302Z,0.90
2022-12-31T06:37:46.701Z,0.75
2022-12-31T06:40:14.088Z,0.70
2022-12-31T06:42:45.202Z,0.80
2022-12-31T06:45:14.439Z,0.80
2022-12-31T06:47:41.286Z,0.73
2022-12-31T06:50:08.741Z,0.80
2022-12-31T06:52:35.660Z,0.70
2022-12-31T06:55:04.759Z,0.85
2022-12-31T06:57:32.024Z,0.65
2022-12-31T06:59:59.279Z,0.80
2022-12-31T07:02:46.458Z,0.80
2022-12-31T07:05:26.906Z,0.70
2022-12-31T07:07:53.718Z,0.90
2022-12-31T07:10:56.308Z,0.80
2022-12-31T07:13:46.671Z,0.70
2022-12-31T07:16:51.914Z,0.60
2022-12-31T07:19:33.810Z,0.80
2022-12-31T07:22:01.162Z,0.50
2022-12-31T07:24:28.382Z,0.60
2022-12-31T07:27:06.431Z,0.68
2022-12-31T07:29:57.293Z,0.63
2022-12-31T07:32:34.163Z,0.70
2022-12-31T07:35:09.672Z,0.65
2022-12-31T07:38:00.079Z,0.80
2022-12-31T07:40:50.074Z,0.80
2022-12-31T07:43:35.726Z,0.70
2022-12-31T07:46:24.629Z,1.25
2022-12-31T07:48:52.086Z,1.83
2022-12-31T07:51:21.237Z,1.42
2022-12-31T07:53:50.595Z,1.55
2022-12-31T07:56:17.637Z,1.00
2022-12-31T07:59:03.980Z,0.70
2022-12-31T08:01:51.875Z,0.93
2022-12-31T08:04:18.760Z,0.95
2022-12-31T08:06:45.587Z,0.80
2022-12-31T08:09:50.334Z,0.70
2022-12-31T08:12:19.889Z,0.90
2022-12-31T08:14:48.164Z,0.80
2022-12-31T08:17:18.048Z,0.68
2022-12-31T08:19:48.613Z,1.00
2022-12-31T08:22:28.226Z,1.08
2022-12-31T08:25:03.430Z,3.83
2022-12-31T08:27:50.893Z,1.10
2022-12-31T08:30:21.284Z,1.30
2022-12-31T08:32:53.071Z,1.30
2022-12-31T08:35:47.925Z,0.88
2022-12-31T08:38:45.853Z,0.75
2022-12-31T08:41:30.297Z,0.75
2022-12-31T08:44:31.630Z,0.65
2022-12-31T08:47:17.866Z,0.93
2022-12-31T08:49:44.888Z,0.60
2022-12-31T08:52:30.495Z,0.60
2022-12-31T08:54:57.902Z,0.65
2022-12-31T08:57:53.409Z,0.70
2022-12-31T09:00:20.967Z,0.70
2022-12-31T09:03:03.131Z,0.90
2022-12-31T09:05:58.815Z,1.00
2022-12-31T09:08:46.822Z,0.90
2022-12-31T09:11:29.350Z,0.90
2022-12-31T09:14:40.425Z,0.60
2022-12-31T09:17:29.012Z,0.50
2022-12-31T09:19:57.569Z,0.60
2022-12-31T09:22:24.809Z,0.70
2022-12-31T09:24:51.792Z,0.73
2022-12-31T09:27:28.328Z,0.70
2022-12-31T09:30:04.037Z,1.35
2022-12-31T09:33:00.329Z,1.30
2022-12-31T09:35:57.857Z,0.98
2022-12-31T09:38:53.195Z,0.80
2022-12-31T09:41:35.693Z,0.90
2022-12-31T09:44:35.917Z,1.80
2022-12-31T09:47:21.238Z,0.90
2022-12-31T09:50:20.915Z,1.30
2022-12-31T09:53:24.821Z,0.70
2022-12-31T09:56:26.380Z,0.70
2022-12-31T09:59:13.070Z,0.70
2022-12-31T10:01:54.573Z,0.60
2022-12-31T10:04:40.872Z,0.75
2022-12-31T10:07:32.675Z,0.90
2022-12-31T10:10:05.554Z,0.80
2022-12-31T10:13:12.860Z,0.68
2022-12-31T10:15:59.476Z,0.80
2022-12-31T10:18:59.995Z,0.70
2022-12-31T10:21:44.279Z,2.03
2022-12-31T10:24:32.096Z,1.70
2022-12-31T10:27:08.662Z,0.70
2022-12-31T10:30:00.180Z,0.60
2022-12-31T10:32:44.044Z,0.50
2022-12-31T10:35:16.893Z,0.70
2022-12-31T10:37:59.928Z,0.93
2022-12-31T10:40:51.663Z,1.13
2022-12-31T10:43:45.938Z,0.60
2022-12-31T10:46:48.918Z,0.50
2022-12-31T10:49:53.613Z,0.70
2022-12-31T10:52:51.921Z,0.70
2022-12-31T10:55:31.901Z,0.60
2022-12-31T10:58:10.129Z,0.70
2022-12-31T11:00:46.873Z,0.70
2022-12-31T11:03:35.077Z,0.80
2022-12-31T11:06:23.754Z,0.75
2022-12-31T11:09:17.465Z,1.02
2022-12-31T11:12:01.505Z,0.85
2022-12-31T11:14:46.571Z,0.93
2022-12-31T11:17:21.209Z,1.35
2022-12-31T11:20:12.300Z,0.93
2022-12-31T11:23:16.733Z,7.07
2022-12-31T11:28:33.421Z,0.70
2022-12-31T11:31:18.969Z,2.63
2022-12-31T11:34:16.567Z,1.20
2022-12-31T11:37:11.411Z,0.63
2022-12-31T11:39:47.613Z,0.70
2022-12-31T11:42:51.803Z,1.67
2022-12-31T11:45:35.715Z,1.08
2022-12-31T11:48:32.895Z,0.50
2022-12-31T11:51:33.472Z,0.70
2022-12-31T11:54:41.231Z,1.63
2022-12-31T11:57:37.462Z,0.75
2022-12-31T12:00:05.368Z,0.70
2022-12-31T12:02:49.089Z,0.70
2022-12-31T12:05:20.515Z,0.90
2022-12-31T12:07:49.011Z,1.00
2022-12-31T12:10:36.816Z,1.92
2022-12-31T12:13:13.758Z,0.98
2022-12-31T12:15:49.594Z,0.88
2022-12-31T12:18:28.442Z,0.85
2022-12-31T12:21:06.083Z,0.65
2022-12-31T12:23:33.164Z,0.90
2022-12-31T12:26:00.124Z,2.45
2022-12-31T12:28:30.161Z,0.85
2022-12-31T12:31:07.730Z,0.73
2022-12-31T12:33:44.092Z,0.82
2022-12-31T12:36:15.714Z,1.20
2022-12-31T12:38:43.450Z,1.02
2022-12-31T12:41:18.640Z,6.45
2022-12-31T12:43:45.589Z,2.10
2022-12-31T12:46:31.491Z,1.85
2022-12-31T12:48:58.840Z,0.88
2022-12-31T12:51:44.266Z,1.55
2022-12-31T12:54:49.793Z,1.48
2022-12-31T12:57:24.627Z,0.82
2022-12-31T12:59:54.530Z,4.00
2022-12-31T13:03:01.181Z,1.23
2022-12-31T13:06:23.021Z,0.70
2022-12-31T13:09:14.019Z,1.25
2022-12-31T13:12:07.795Z,1.30
2022-12-31T13:14:54.085Z,1.83
2022-12-31T13:18:01.952Z,0.80
2022-12-31T13:20:50.314Z,1.00
2022-12-31T13:23:34.829Z,1.00
2022-12-31T13:26:23.515Z,0.63
2022-12-31T13:28:53.276Z,0.57
2022-12-31T13:31:26.558Z,0.68
2022-12-31T13:34:01.182Z,1.17
2022-12-31T13:36:32.904Z,4.72
2022-12-31T13:39:05.739Z,1.65
2022-12-31T13:41:38.919Z,1.30
2022-12-31T13:44:15.070Z,0.50
2022-12-31T13:47:32.972Z,0.68
2022-12-31T13:50:14.248Z,0.85
2022-12-31T13:52:53.080Z,1.38
2022-12-31T13:55:35.895Z,0.90
2022-12-31T13:58:16.164Z,0.85
2022-12-31T14:00:55.622Z,0.98
2022-12-31T14:03:27.736Z,0.80
2022-12-31T14:06:24.126Z,0.90
2022-12-31T14:08:53.490Z,0.93
2022-12-31T14:11:55.808Z,1.00
2022-12-31T14:14:45.859Z,0.70
2022-12-31T14:17:31.244Z,1.80
2022-12-31T14:20:07.540Z,0.50
2022-12-31T14:22:56.397Z,0.80
2022-12-31T14:25:29.112Z,0.93
2022-12-31T14:27:58.081Z,0.87
2022-12-31T14:30:31.156Z,1.40
2022-12-31T14:33:36.010Z,2.20
2022-12-31T14:36:23.272Z,1.85
2022-12-31T14:39:17.426Z,1.52
2022-12-31T14:42:12.883Z,1.80
2022-12-31T14:44:50.616Z,1.70
2022-12-31T14:47:59.410Z,1.27
2022-12-31T14:50:29.784Z,1.25
2022-12-31T14:53:02.465Z,5.88
2022-12-31T14:55:34.589Z,1.58
2022-12-31T15:01:09.243Z,3.45
2022-12-31T15:03:46.065Z,3.65
2022-12-31T15:06:32.032Z,4.00
2022-12-31T15:09:15.213Z,2.53
2022-12-31T15:12:00.947Z,2.95
2022-12-31T15:14:44.680Z,1.95
2022-12-31T15:17:39.545Z,1.60
2022-12-31T15:20:28.802Z,1.60
2022-12-31T15:22:56.165Z,1.83
2022-12-31T15:25:35.388Z,1.48
2022-12-31T15:28:36.461Z,2.08
2022-12-31T15:31:20.921Z,1.55
2022-12-31T15:34:25.047Z,1.90
2022-12-31T15:36:55.490Z,3.63
2022-12-31T15:39:36.671Z,2.17
2022-12-31T15:42:37.483Z,4.03
2022-12-31T15:44:59.710Z,3.33
2022-12-31T15:47:38.516Z,6.95
2022-12-31T15:50:12.530Z,4.70
2022-12-31T15:52:48.157Z,2.30
2022-12-31T15:55:33.975Z,2.10
2022-12-31T15:58:10.108Z,1.85
2022-12-31T16:00:52.429Z,1.73
2022-12-31T16:03:24.255Z,1.40
2022-12-31T16:05:57.583Z,1.77
2022-12-31T16:08:28.922Z,3.80
2022-12-31T16:10:58.138Z,4.85
2022-12-31T16:13:29.160Z,3.42
2022-12-31T16:16:03.716Z,4.32
2022-12-31T16:18:40.477Z,2.20
2022-12-31T16:21:22.761Z,1.50
2022-12-31T16:23:52.214Z,1.90
2022-12-31T16:26:19.234Z,1.40
2022-12-31T16:28:49.554Z,19.55
2022-12-31T16:31:20.022Z,1.20
2022-12-31T16:33:47.788Z,1.40
2022-12-31T16:36:22.225Z,2.00
2022-12-31T16:38:49.948Z,2.00
2022-12-31T16:41:19.332Z,2.15
2022-12-31T16:43:49.146Z,1.70
2022-12-31T16:46:27.202Z,1.40
2022-12-31T16:49:15.882Z,2.05
2022-12-31T16:51:42.925Z,1.60
2022-12-31T16:54:20.848Z,1.60
2022-12-31T16:56:48.034Z,1.27
2022-12-31T16:59:30.520Z,1.10
2022-12-31T17:02:06.791Z,1.30
2022-12-31T17:04:33.846Z,1.13
2022-12-31T17:07:31.362Z,1.42
2022-12-31T17:10:07.156Z,1.27
2022-12-31T17:13:17.483Z,1.20
2022-12-31T17:15:41.356Z,1.50
2022-12-31T17:18:18.026Z,1.70
2022-12-31T17:20:44.904Z,1.27
2022-12-31T17:23:23.632Z,2.00
2022-12-31T17:25:58.423Z,1.40
2022-12-31T17:28:27.643Z,1.55
2022-12-31T17:31:28.260Z,1.23
2022-12-31T17:34:05.503Z,1.83
2022-12-31T17:36:32.504Z,1.52
2022-12-31T17:39:16.832Z,1.27
2022-12-31T17:41:47.926Z,2.05
2022-12-31T17:44:22.018Z,3.63
2022-12-31T17:46:50.426Z,4.50
2022-12-31T17:49:19.370Z,5.57
2022-12-31T17:51:47.859Z,4.57
2022-12-31T17:54:16.624Z,2.20
2022-12-31T17:56:44.010Z,2.85
2022-12-31T17:59:19.043Z,2.20
2022-12-31T18:01:45.963Z,7.88
2022-12-31T18:04:14.689Z,2.88
2022-12-31T18:06:42.206Z,2.95
2022-12-31T18:09:09.458Z,11.93
2022-12-31T18:11:38.710Z,10.77
2022-12-31T18:14:05.529Z,13.20
2022-12-31T18:16:32.314Z,11.85
2022-12-31T18:19:00.797Z,12.80
2022-12-31T18:21:33.123Z,7.40
2022-12-31T18:26:28.474Z,7.88
2022-12-31T18:28:56.889Z,11.40
2022-12-31T18:31:29.946Z,10.70
2022-12-31T18:33:58.782Z,15.80
2022-12-31T18:36:27.650Z,10.23
2022-12-31T18:38:54.659Z,27.35
2022-12-31T18:41:24.251Z,24.15
2022-12-31T18:43:51.119Z,18.98
2022-12-31T18:46:23.907Z,15.85
2022-12-31T18:48:50.955Z,15.77
2022-12-31T18:51:20.730Z,8.05
2022-12-31T18:53:48.083Z,7.25
2022-12-31T18:56:19.825Z,8.02
2022-12-31T18:58:47.120Z,9.68
2022-12-31T19:01:37.396Z,6.15
2022-12-31T19:04:13.438Z,4.60
2022-12-31T19:06:40.589Z,5.82
2022-12-31T19:09:23.752Z,7.22
2022-12-31T19:11:54.151Z,7.80
2022-12-31T19:14:24.293Z,7.45
2022-12-31T19:16:53.433Z,5.72
2022-12-31T19:19:21.215Z,60.03
2022-12-31T19:21:48.278Z,9.13
2022-12-31T19:24:21.563Z,9.13
2022-12-31T19:26:49.216Z,19.23
2022-12-31T19:29:19.255Z,9.95
2022-12-31T19:31:46.221Z,4.63
2022-12-31T19:34:13.133Z,3.85
2022-12-31T19:36:44.146Z,2.80
2022-12-31T19:39:20.283Z,2.67
2022-12-31T19:41:56.629Z,1.88
2022-12-31T19:44:25.986Z,2.00
2022-12-31T19:46:52.773Z,1.85
2022-12-31T19:49:19.488Z,2.40
2022-12-31T19:51:46.343Z,2.35
2022-12-31T19:54:13.451Z,1.73
2022-12-31T19:56:40.615Z,2.38
2022-12-31T19:59:09.569Z,1.10
2022-12-31T20:01:36.606Z,1.75
2022-12-31T20:04:03.739Z,1.30
2022-12-31T20:06:31.483Z,1.45
2022-12-31T20:08:58.332Z,1.70
2022-12-31T20:11:25.319Z,1.83
2022-12-31T20:13:54.046Z,1.90
2022-12-31T20:16:23.766Z,1.30
2022-12-31T20:18:51.023Z,1.70
2022-12-31T20:21:23.489Z,1.60
2022-12-31T20:23:51.133Z,1.67
2022-12-31T20:26:19.468Z,1.70
2022-12-31T20:28:46.562Z,1.80
2022-12-31T20:31:16.049Z,1.67
2022-12-31T20:33:43.172Z,1.80
2022-12-31T20:36:12.992Z,1.35
2022-12-31T20:38:40.013Z,1.80
2022-12-31T20:41:08.509Z,1.73
2022-12-31T20:43:36.339Z,1.73
2022-12-31T20:46:14.554Z,2.30
2022-12-31T20:48:42.335Z,1.80
2022-12-31T20:51:09.116Z,2.13
2022-12-31T20:53:36.062Z,1.80
2022-12-31T20:56:07.146Z,2.08
2022-12-31T20:58:34.640Z,2.10
2022-12-31T21:01:01.622Z,1.95
2022-12-31T21:04:03.780Z,1.67
2022-12-31T21:06:15.781Z,2.60
2022-12-31T21:08:43.282Z,1.95
2022-12-31T21:11:28.947Z,1.80
2022-12-31T21:13:57.435Z,2.42
2022-12-31T21:16:25.281Z,1.92
2022-12-31T21:18:52.818Z,2.03
2022-12-31T21:21:19.812Z,2.70
2022-12-31T21:23:46.958Z,2.85
2022-12-31T21:26:13.934Z,2.17
2022-12-31T21:28:40.707Z,2.10
2022-12-31T21:31:08.389Z,2.00
2022-12-31T21:33:35.376Z,2.53
2022-12-31T21:36:04.661Z,3.38
2022-12-31T21:38:32.004Z,4.55
2022-12-31T21:41:06.812Z,4.43
2022-12-31T21:43:33.992Z,2.17
2022-12-31T21:46:05.920Z,2.58
2022-12-31T21:48:33.407Z,1.70
2022-12-31T21:51:09.991Z,2.20
2022-12-31T21:53:37.604Z,3.00
2022-12-31T21:56:16.203Z,2.90
2022-12-31T21:59:12.048Z,2.10
2022-12-31T22:01:57.468Z,2.10
2022-12-31T22:05:00.493Z,2.63
2022-12-31T22:07:10.944Z,4.05
2022-12-31T22:09:37.662Z,3.10
2022-12-31T22:12:04.741Z,3.17
2022-12-31T22:14:31.449Z,2.90
2022-12-31T22:16:58.211Z,2.22
2022-12-31T22:19:26.082Z,1.75
2022-12-31T22:21:52.867Z,2.30
2022-12-31T22:24:19.601Z,2.20
2022-12-31T22:26:47.072Z,2.70
2022-12-31T22:29:14.010Z,2.38
2022-12-31T22:31:40.807Z,2.85
2022-12-31T22:34:07.667Z,2.70
2022-12-31T22:36:34.547Z,3.00
2022-12-31T22:39:01.339Z,2.60
2022-12-31T22:41:29.154Z,3.10
2022-12-31T22:44:05.823Z,3.63
2022-12-31T22:46:33.872Z,3.08
2022-12-31T22:49:02.466Z,2.42
2022-12-31T22:51:58.710Z,2.83
2022-12-31T22:54:24.517Z,2.92
2022-12-31T22:56:51.968Z,3.50
2022-12-31T22:59:19.465Z,3.28
2022-12-31T23:01:46.883Z,2.55
2022-12-31T23:04:14.552Z,4.10
2022-12-31T23:06:44.445Z,4.00
2022-12-31T23:09:42.141Z,9.20
2022-12-31T23:12:09.920Z,39.70
2022-12-31T23:14:56.015Z,20.65
2022-12-31T23:17:45.630Z,186.82
2022-12-31T23:20:41.733Z,88.28
2022-12-31T23:23:14.273Z,152.77
2022-12-31T23:25:47.273Z,180.70
2022-12-31T23:28:21.620Z,115.40
2022-12-31T23:30:53.756Z,83.75
2022-12-31T23:33:25.928Z,39.45
2022-12-31T23:36:06.523Z,36.17
2022-12-31T23:38:33.407Z,27.13
2022-12-31T23:41:00.293Z,25.38
2022-12-31T23:43:30.198Z,27.65
2022-12-31T23:45:57.114Z,32.00
2022-12-31T23:48:23.954Z,27.50
2022-12-31T23:50:54.149Z,28.30
2022-12-31T23:53:23.019Z,34.95
2022-12-31T23:55:50.483Z,29.00
2022-12-31T23:58:17.501Z,30.63
